sensor_id;sensor_type;location;lat;lon;timestamp;temperature;humidity
14995;DHT22;7593;49.006;8.372;2023-07-20T00:00:06;21.00;90.30
14995;DHT22;7593;49.006;8.372;2023-07-20T00:02:33;21.00;90.50
14995;DHT22;7593;49.006;8.372;2023-07-20T00:04:59;20.90;90.60
14995;DHT22;7593;49.006;8.372;2023-07-20T00:07:26;20.80;90.80
14995;DHT22;7593;49.006;8.372;2023-07-20T00:09:54;20.70;90.90
14995;DHT22;7593;49.006;8.372;2023-07-20T00:12:22;20.60;91.00
14995;DHT22;7593;49.006;8.372;2023-07-20T00:14:49;20.60;91.30
14995;DHT22;7593;49.006;8.372;2023-07-20T00:17:19;20.50;91.40
14995;DHT22;7593;49.006;8.372;2023-07-20T00:19:46;20.50;91.40
14995;DHT22;7593;49.006;8.372;2023-07-20T00:22:13;20.50;91.50
14995;DHT22;7593;49.006;8.372;2023-07-20T00:24:39;20.40;91.50
14995;DHT22;7593;49.006;8.372;2023-07-20T00:27:06;20.40;91.70
14995;DHT22;7593;49.006;8.372;2023-07-20T00:29:34;20.30;91.70
14995;DHT22;7593;49.006;8.372;2023-07-20T00:32:02;20.30;91.80
14995;DHT22;7593;49.006;8.372;2023-07-20T00:34:30;20.20;91.90
14995;DHT22;7593;49.006;8.372;2023-07-20T00:36:57;20.20;92.00
14995;DHT22;7593;49.006;8.372;2023-07-20T00:39:24;20.10;92.30
14995;DHT22;7593;49.006;8.372;2023-07-20T00:41:50;20.10;92.40
14995;DHT22;7593;49.006;8.372;2023-07-20T00:44:17;20.10;92.70
14995;DHT22;7593;49.006;8.372;2023-07-20T00:46:45;20.00;92.80
14995;DHT22;7593;49.006;8.372;2023-07-20T00:49:12;20.00;93.00
14995;DHT22;7593;49.006;8.372;2023-07-20T00:51:39;20.00;93.20
14995;DHT22;7593;49.006;8.372;2023-07-20T00:54:06;19.90;93.30
14995;DHT22;7593;49.006;8.372;2023-07-20T00:56:33;19.90;93.40
14995;DHT22;7593;49.006;8.372;2023-07-20T00:59:00;19.90;93.40
14995;DHT22;7593;49.006;8.372;2023-07-20T01:01:27;19.80;93.40
14995;DHT22;7593;49.006;8.372;2023-07-20T01:03:54;19.80;93.50
14995;DHT22;7593;49.006;8.372;2023-07-20T01:06:26;19.80;93.80
14995;DHT22;7593;49.006;8.372;2023-07-20T01:09:02;19.80;94.20
14995;DHT22;7593;49.006;8.372;2023-07-20T01:11:36;19.70;94.20
14995;DHT22;7593;49.006;8.372;2023-07-20T01:14:05;19.70;94.60
14995;DHT22;7593;49.006;8.372;2023-07-20T01:16:33;19.70;94.70
14995;DHT22;7593;49.006;8.372;2023-07-20T01:19:01;19.60;94.80
14995;DHT22;7593;49.006;8.372;2023-07-20T01:21:33;19.50;95.00
14995;DHT22;7593;49.006;8.372;2023-07-20T01:24:32;19.50;95.30
14995;DHT22;7593;49.006;8.372;2023-07-20T01:27:25;19.30;95.70
14995;DHT22;7593;49.006;8.372;2023-07-20T01:30:25;19.30;95.90
14995;DHT22;7593;49.006;8.372;2023-07-20T01:32:57;19.10;96.10
14995;DHT22;7593;49.006;8.372;2023-07-20T01:35:28;19.10;96.40
14995;DHT22;7593;49.006;8.372;2023-07-20T01:37:56;19.00;96.60
14995;DHT22;7593;49.006;8.372;2023-07-20T01:40:24;18.90;96.80
14995;DHT22;7593;49.006;8.372;2023-07-20T01:42:52;18.80;97.00
14995;DHT22;7593;49.006;8.372;2023-07-20T01:45:19;18.80;97.20
14995;DHT22;7593;49.006;8.372;2023-07-20T01:47:45;18.60;97.20
14995;DHT22;7593;49.006;8.372;2023-07-20T01:50:13;18.50;97.40
14995;DHT22;7593;49.006;8.372;2023-07-20T01:52:40;18.40;97.70
14995;DHT22;7593;49.006;8.372;2023-07-20T01:55:08;18.30;98.00
14995;DHT22;7593;49.006;8.372;2023-07-20T01:57:34;18.20;98.10
14995;DHT22;7593;49.006;8.372;2023-07-20T02:00:01;18.20;98.30
14995;DHT22;7593;49.006;8.372;2023-07-20T02:02:28;18.10;98.50
14995;DHT22;7593;49.006;8.372;2023-07-20T02:04:55;18.00;98.60
14995;DHT22;7593;49.006;8.372;2023-07-20T02:07:23;18.00;98.80
14995;DHT22;7593;49.006;8.372;2023-07-20T02:09:50;18.00;99.00
14995;DHT22;7593;49.006;8.372;2023-07-20T02:12:17;18.00;99.00
14995;DHT22;7593;49.006;8.372;2023-07-20T02:14:44;18.00;99.20
14995;DHT22;7593;49.006;8.372;2023-07-20T02:17:10;18.00;99.30
14995;DHT22;7593;49.006;8.372;2023-07-20T02:19:37;18.10;99.50
14995;DHT22;7593;49.006;8.372;2023-07-20T02:22:05;18.10;99.50
14995;DHT22;7593;49.006;8.372;2023-07-20T02:24:34;18.10;99.50
14995;DHT22;7593;49.006;8.372;2023-07-20T02:27:00;18.20;99.60
14995;DHT22;7593;49.006;8.372;2023-07-20T02:29:27;18.20;99.70
14995;DHT22;7593;49.006;8.372;2023-07-20T02:31:54;18.10;99.60
14995;DHT22;7593;49.006;8.372;2023-07-20T02:34:20;18.10;99.70
14995;DHT22;7593;49.006;8.372;2023-07-20T02:36:47;18.10;99.80
14995;DHT22;7593;49.006;8.372;2023-07-20T02:39:14;18.00;99.90
14995;DHT22;7593;49.006;8.372;2023-07-20T02:41:42;18.00;99.90
14995;DHT22;7593;49.006;8.372;2023-07-20T02:44:09;18.10;99.90
14995;DHT22;7593;49.006;8.372;2023-07-20T02:46:36;18.10;99.90
14995;DHT22;7593;49.006;8.372;2023-07-20T02:49:03;18.10;99.90
14995;DHT22;7593;49.006;8.372;2023-07-20T02:51:29;18.00;99.90
14995;DHT22;7593;49.006;8.372;2023-07-20T02:53:56;17.90;99.90
14995;DHT22;7593;49.006;8.372;2023-07-20T02:56:23;17.80;99.90
14995;DHT22;7593;49.006;8.372;2023-07-20T02:58:51;17.80;99.90
14995;DHT22;7593;49.006;8.372;2023-07-20T03:01:18;17.70;99.90
14995;DHT22;7593;49.006;8.372;2023-07-20T03:03:45;17.80;99.90
14995;DHT22;7593;49.006;8.372;2023-07-20T03:06:12;17.80;99.90
14995;DHT22;7593;49.006;8.372;2023-07-20T03:08:40;17.80;99.90
14995;DHT22;7593;49.006;8.372;2023-07-20T03:11:10;17.90;99.90
14995;DHT22;7593;49.006;8.372;2023-07-20T03:13:37;17.90;99.90
14995;DHT22;7593;49.006;8.372;2023-07-20T03:16:05;17.90;99.90
14995;DHT22;7593;49.006;8.372;2023-07-20T03:18:36;17.90;99.90
14995;DHT22;7593;49.006;8.372;2023-07-20T03:21:03;17.90;99.90
14995;DHT22;7593;49.006;8.372;2023-07-20T03:23:30;17.90;99.90
14995;DHT22;7593;49.006;8.372;2023-07-20T03:25:57;17.90;99.90
14995;DHT22;7593;49.006;8.372;2023-07-20T03:28:23;17.80;99.90
14995;DHT22;7593;49.006;8.372;2023-07-20T03:30:53;17.70;99.90
14995;DHT22;7593;49.006;8.372;2023-07-20T03:33:21;17.70;99.90
14995;DHT22;7593;49.006;8.372;2023-07-20T03:35:48;17.70;99.90
14995;DHT22;7593;49.006;8.372;2023-07-20T03:38:15;17.70;99.90
14995;DHT22;7593;49.006;8.372;2023-07-20T03:40:49;17.70;99.90
14995;DHT22;7593;49.006;8.372;2023-07-20T03:43:16;17.70;99.90
14995;DHT22;7593;49.006;8.372;2023-07-20T03:45:43;17.70;99.90
14995;DHT22;7593;49.006;8.372;2023-07-20T03:48:10;17.60;99.90
14995;DHT22;7593;49.006;8.372;2023-07-20T03:50:39;17.60;99.90
14995;DHT22;7593;49.006;8.372;2023-07-20T03:53:06;17.60;99.90
14995;DHT22;7593;49.006;8.372;2023-07-20T03:55:32;17.50;99.90
14995;DHT22;7593;49.006;8.372;2023-07-20T03:57:59;17.40;99.90
14995;DHT22;7593;49.006;8.372;2023-07-20T04:00:27;17.30;99.90
14995;DHT22;7593;49.006;8.372;2023-07-20T04:02:54;17.30;99.90
14995;DHT22;7593;49.006;8.372;2023-07-20T04:05:21;17.30;99.90
14995;DHT22;7593;49.006;8.372;2023-07-20T04:07:49;17.20;99.90
14995;DHT22;7593;49.006;8.372;2023-07-20T04:10:17;17.20;99.90
14995;DHT22;7593;49.006;8.372;2023-07-20T04:12:44;17.20;99.90
14995;DHT22;7593;49.006;8.372;2023-07-20T04:15:12;17.10;99.90
14995;DHT22;7593;49.006;8.372;2023-07-20T04:17:39;17.10;99.90
14995;DHT22;7593;49.006;8.372;2023-07-20T04:20:07;17.10;99.90
14995;DHT22;7593;49.006;8.372;2023-07-20T04:22:35;17.10;99.90
14995;DHT22;7593;49.006;8.372;2023-07-20T04:25:07;17.10;99.90
14995;DHT22;7593;49.006;8.372;2023-07-20T04:27:35;17.20;99.90
14995;DHT22;7593;49.006;8.372;2023-07-20T04:30:02;17.20;99.90
14995;DHT22;7593;49.006;8.372;2023-07-20T04:32:30;17.20;99.90
14995;DHT22;7593;49.006;8.372;2023-07-20T04:34:59;17.30;99.90
14995;DHT22;7593;49.006;8.372;2023-07-20T04:37:26;17.20;99.90
14995;DHT22;7593;49.006;8.372;2023-07-20T04:39:52;17.20;99.90
14995;DHT22;7593;49.006;8.372;2023-07-20T04:42:20;17.20;99.90
14995;DHT22;7593;49.006;8.372;2023-07-20T04:44:47;17.20;99.90
14995;DHT22;7593;49.006;8.372;2023-07-20T04:47:14;17.30;99.90
14995;DHT22;7593;49.006;8.372;2023-07-20T04:49:42;17.40;99.90
14995;DHT22;7593;49.006;8.372;2023-07-20T04:52:09;17.40;99.90
14995;DHT22;7593;49.006;8.372;2023-07-20T04:54:35;17.30;99.90
14995;DHT22;7593;49.006;8.372;2023-07-20T04:57:05;17.30;99.90
14995;DHT22;7593;49.006;8.372;2023-07-20T04:59:37;17.20;99.90
14995;DHT22;7593;49.006;8.372;2023-07-20T05:02:05;17.20;99.90
14995;DHT22;7593;49.006;8.372;2023-07-20T05:04:31;17.10;99.90
14995;DHT22;7593;49.006;8.372;2023-07-20T05:06:58;17.10;99.90
14995;DHT22;7593;49.006;8.372;2023-07-20T05:09:25;17.10;99.90
14995;DHT22;7593;49.006;8.372;2023-07-20T05:11:52;17.10;99.90
14995;DHT22;7593;49.006;8.372;2023-07-20T05:14:19;17.20;99.90
14995;DHT22;7593;49.006;8.372;2023-07-20T05:16:47;17.20;99.90
14995;DHT22;7593;49.006;8.372;2023-07-20T05:19:14;17.30;99.90
14995;DHT22;7593;49.006;8.372;2023-07-20T05:21:40;17.30;99.90
14995;DHT22;7593;49.006;8.372;2023-07-20T05:24:07;17.30;99.90
14995;DHT22;7593;49.006;8.372;2023-07-20T05:26:34;17.30;99.90
14995;DHT22;7593;49.006;8.372;2023-07-20T05:29:01;17.40;99.90
14995;DHT22;7593;49.006;8.372;2023-07-20T05:31:28;17.40;99.90
14995;DHT22;7593;49.006;8.372;2023-07-20T05:33:57;17.50;99.90
14995;DHT22;7593;49.006;8.372;2023-07-20T05:36:24;17.50;99.90
14995;DHT22;7593;49.006;8.372;2023-07-20T05:38:51;17.60;99.90
14995;DHT22;7593;49.006;8.372;2023-07-20T05:41:18;17.50;99.90
14995;DHT22;7593;49.006;8.372;2023-07-20T05:43:44;17.60;99.90
14995;DHT22;7593;49.006;8.372;2023-07-20T05:46:11;17.70;99.90
14995;DHT22;7593;49.006;8.372;2023-07-20T05:48:38;17.80;99.90
14995;DHT22;7593;49.006;8.372;2023-07-20T05:51:06;17.80;99.90
14995;DHT22;7593;49.006;8.372;2023-07-20T05:53:34;17.80;99.90
14995;DHT22;7593;49.006;8.372;2023-07-20T05:56:01;17.90;99.90
14995;DHT22;7593;49.006;8.372;2023-07-20T05:58:29;17.90;99.90
14995;DHT22;7593;49.006;8.372;2023-07-20T06:00:55;17.90;99.90
14995;DHT22;7593;49.006;8.372;2023-07-20T06:03:22;17.90;99.90
14995;DHT22;7593;49.006;8.372;2023-07-20T06:05:49;18.00;99.90
14995;DHT22;7593;49.006;8.372;2023-07-20T06:08:17;18.10;99.90
14995;DHT22;7593;49.006;8.372;2023-07-20T06:10:43;18.20;99.90
14995;DHT22;7593;49.006;8.372;2023-07-20T06:13:10;18.30;99.90
14995;DHT22;7593;49.006;8.372;2023-07-20T06:15:37;18.30;99.90
14995;DHT22;7593;49.006;8.372;2023-07-20T06:18:04;18.40;99.90
14995;DHT22;7593;49.006;8.372;2023-07-20T06:20:31;18.50;99.90
14995;DHT22;7593;49.006;8.372;2023-07-20T06:22:58;18.50;99.90
14995;DHT22;7593;49.006;8.372;2023-07-20T06:25:27;18.60;99.90
14995;DHT22;7593;49.006;8.372;2023-07-20T06:27:55;18.70;99.90
14995;DHT22;7593;49.006;8.372;2023-07-20T06:30:23;18.80;99.90
14995;DHT22;7593;49.006;8.372;2023-07-20T06:32:51;18.80;99.90
14995;DHT22;7593;49.006;8.372;2023-07-20T06:35:18;18.90;99.90
14995;DHT22;7593;49.006;8.372;2023-07-20T06:37:45;19.10;99.90
14995;DHT22;7593;49.006;8.372;2023-07-20T06:40:12;19.30;99.90
14995;DHT22;7593;49.006;8.372;2023-07-20T06:42:40;19.50;99.90
14995;DHT22;7593;49.006;8.372;2023-07-20T06:45:07;19.70;99.90
14995;DHT22;7593;49.006;8.372;2023-07-20T06:47:34;19.90;99.90
14995;DHT22;7593;49.006;8.372;2023-07-20T06:50:01;20.10;99.90
14995;DHT22;7593;49.006;8.372;2023-07-20T06:52:28;20.20;99.90
14995;DHT22;7593;49.006;8.372;2023-07-20T06:54:55;20.30;99.90
14995;DHT22;7593;49.006;8.372;2023-07-20T06:57:22;20.30;99.90
14995;DHT22;7593;49.006;8.372;2023-07-20T06:59:50;20.30;99.90
14995;DHT22;7593;49.006;8.372;2023-07-20T07:02:17;20.30;99.90
14995;DHT22;7593;49.006;8.372;2023-07-20T07:04:44;20.10;99.90
14995;DHT22;7593;49.006;8.372;2023-07-20T07:07:11;20.00;99.90
14995;DHT22;7593;49.006;8.372;2023-07-20T07:09:37;20.10;99.90
14995;DHT22;7593;49.006;8.372;2023-07-20T07:12:05;20.10;99.90
14995;DHT22;7593;49.006;8.372;2023-07-20T07:14:32;20.10;99.90
14995;DHT22;7593;49.006;8.372;2023-07-20T07:17:00;20.20;99.90
14995;DHT22;7593;49.006;8.372;2023-07-20T07:19:27;20.20;99.90
14995;DHT22;7593;49.006;8.372;2023-07-20T07:21:54;20.20;99.90
14995;DHT22;7593;49.006;8.372;2023-07-20T07:24:25;20.40;99.90
14995;DHT22;7593;49.006;8.372;2023-07-20T07:26:53;20.70;99.90
14995;DHT22;7593;49.006;8.372;2023-07-20T07:29:20;21.20;99.90
14995;DHT22;7593;49.006;8.372;2023-07-20T07:31:47;21.80;99.90
14995;DHT22;7593;49.006;8.372;2023-07-20T07:34:15;22.20;99.90
14995;DHT22;7593;49.006;8.372;2023-07-20T07:36:42;22.30;99.60
14995;DHT22;7593;49.006;8.372;2023-07-20T07:39:09;22.10;99.30
14995;DHT22;7593;49.006;8.372;2023-07-20T07:41:35;22.00;99.40
14995;DHT22;7593;49.006;8.372;2023-07-20T07:44:02;21.90;99.60
14995;DHT22;7593;49.006;8.372;2023-07-20T07:46:29;21.70;99.80
14995;DHT22;7593;49.006;8.372;2023-07-20T07:48:56;21.70;99.90
14995;DHT22;7593;49.006;8.372;2023-07-20T07:51:24;21.80;99.90
14995;DHT22;7593;49.006;8.372;2023-07-20T07:53:52;22.10;99.90
14995;DHT22;7593;49.006;8.372;2023-07-20T07:56:19;22.30;99.20
14995;DHT22;7593;49.006;8.372;2023-07-20T07:58:48;22.50;98.80
14995;DHT22;7593;49.006;8.372;2023-07-20T08:01:14;22.70;98.80
14995;DHT22;7593;49.006;8.372;2023-07-20T08:03:42;22.70;98.30
14995;DHT22;7593;49.006;8.372;2023-07-20T08:06:11;22.90;98.10
14995;DHT22;7593;49.006;8.372;2023-07-20T08:08:39;23.20;97.80
14995;DHT22;7593;49.006;8.372;2023-07-20T08:11:05;23.40;97.30
14995;DHT22;7593;49.006;8.372;2023-07-20T08:13:32;23.70;97.00
14995;DHT22;7593;49.006;8.372;2023-07-20T08:15:59;24.10;96.80
14995;DHT22;7593;49.006;8.372;2023-07-20T08:18:27;24.30;95.70
14995;DHT22;7593;49.006;8.372;2023-07-20T08:20:54;24.30;95.40
14995;DHT22;7593;49.006;8.372;2023-07-20T08:23:21;24.30;95.30
14995;DHT22;7593;49.006;8.372;2023-07-20T08:25:49;24.30;95.30
14995;DHT22;7593;49.006;8.372;2023-07-20T08:28:16;23.90;95.20
14995;DHT22;7593;49.006;8.372;2023-07-20T08:30:44;24.00;95.50
14995;DHT22;7593;49.006;8.372;2023-07-20T08:33:13;24.00;95.50
14995;DHT22;7593;49.006;8.372;2023-07-20T08:35:40;24.00;95.30
14995;DHT22;7593;49.006;8.372;2023-07-20T08:38:07;24.00;95.50
14995;DHT22;7593;49.006;8.372;2023-07-20T08:40:39;24.30;95.40
14995;DHT22;7593;49.006;8.372;2023-07-20T08:43:07;24.50;95.00
14995;DHT22;7593;49.006;8.372;2023-07-20T08:45:34;24.70;94.40
14995;DHT22;7593;49.006;8.372;2023-07-20T08:48:04;24.60;93.80
14995;DHT22;7593;49.006;8.372;2023-07-20T08:50:31;24.40;93.20
14995;DHT22;7593;49.006;8.372;2023-07-20T08:52:59;24.40;93.60
14995;DHT22;7593;49.006;8.372;2023-07-20T08:55:26;24.70;93.50
14995;DHT22;7593;49.006;8.372;2023-07-20T08:57:54;24.80;93.10
14995;DHT22;7593;49.006;8.372;2023-07-20T09:00:23;24.80;93.10
14995;DHT22;7593;49.006;8.372;2023-07-20T09:02:53;24.70;92.80
14995;DHT22;7593;49.006;8.372;2023-07-20T09:05:20;24.30;92.20
14995;DHT22;7593;49.006;8.372;2023-07-20T09:07:47;24.10;92.30
14995;DHT22;7593;49.006;8.372;2023-07-20T09:10:14;24.30;92.80
14995;DHT22;7593;49.006;8.372;2023-07-20T09:12:41;24.70;92.10
14995;DHT22;7593;49.006;8.372;2023-07-20T09:15:10;24.80;91.50
14995;DHT22;7593;49.006;8.372;2023-07-20T09:17:38;25.00;91.60
14995;DHT22;7593;49.006;8.372;2023-07-20T09:20:06;25.00;92.00
14995;DHT22;7593;49.006;8.372;2023-07-20T09:22:36;25.20;91.40
14995;DHT22;7593;49.006;8.372;2023-07-20T09:25:06;25.30;90.60
14995;DHT22;7593;49.006;8.372;2023-07-20T09:27:35;25.60;90.00
14995;DHT22;7593;49.006;8.372;2023-07-20T09:30:04;25.60;89.00
14995;DHT22;7593;49.006;8.372;2023-07-20T09:32:40;25.30;89.60
14995;DHT22;7593;49.006;8.372;2023-07-20T09:35:11;25.40;90.20
14995;DHT22;7593;49.006;8.372;2023-07-20T09:37:39;25.50;90.30
14995;DHT22;7593;49.006;8.372;2023-07-20T09:40:07;25.60;89.40
14995;DHT22;7593;49.006;8.372;2023-07-20T09:42:36;25.70;87.60
14995;DHT22;7593;49.006;8.372;2023-07-20T09:45:06;26.10;86.80
14995;DHT22;7593;49.006;8.372;2023-07-20T09:47:36;26.20;85.00
14995;DHT22;7593;49.006;8.372;2023-07-20T09:50:06;26.10;85.00
14995;DHT22;7593;49.006;8.372;2023-07-20T09:52:37;26.30;84.60
14995;DHT22;7593;49.006;8.372;2023-07-20T09:55:06;26.80;83.60
14995;DHT22;7593;49.006;8.372;2023-07-20T09:57:33;26.90;81.40
14995;DHT22;7593;49.006;8.372;2023-07-20T10:00:01;27.00;82.70
14995;DHT22;7593;49.006;8.372;2023-07-20T10:02:32;26.90;82.00
14995;DHT22;7593;49.006;8.372;2023-07-20T10:05:02;27.10;82.70
14995;DHT22;7593;49.006;8.372;2023-07-20T10:07:33;27.20;82.40
14995;DHT22;7593;49.006;8.372;2023-07-20T10:10:03;27.50;82.40
14995;DHT22;7593;49.006;8.372;2023-07-20T10:12:31;28.20;81.00
14995;DHT22;7593;49.006;8.372;2023-07-20T10:15:04;28.90;79.60
14995;DHT22;7593;49.006;8.372;2023-07-20T10:17:38;29.50;79.00
14995;DHT22;7593;49.006;8.372;2023-07-20T10:20:07;29.50;75.10
14995;DHT22;7593;49.006;8.372;2023-07-20T10:22:36;29.40;75.20
14995;DHT22;7593;49.006;8.372;2023-07-20T10:25:05;29.00;74.90
14995;DHT22;7593;49.006;8.372;2023-07-20T10:27:32;28.80;75.20
14995;DHT22;7593;49.006;8.372;2023-07-20T10:29:59;28.70;75.50
14995;DHT22;7593;49.006;8.372;2023-07-20T10:32:29;28.40;74.50
14995;DHT22;7593;49.006;8.372;2023-07-20T10:34:56;28.00;75.80
14995;DHT22;7593;49.006;8.372;2023-07-20T10:37:49;28.30;76.10
14995;DHT22;7593;49.006;8.372;2023-07-20T10:40:24;28.50;75.30
14995;DHT22;7593;49.006;8.372;2023-07-20T10:42:56;28.60;75.10
14995;DHT22;7593;49.006;8.372;2023-07-20T10:45:33;28.90;75.30
14995;DHT22;7593;49.006;8.372;2023-07-20T10:48:03;29.40;73.50
14995;DHT22;7593;49.006;8.372;2023-07-20T10:50:30;29.10;72.70
14995;DHT22;7593;49.006;8.372;2023-07-20T10:53:10;28.90;71.90
14995;DHT22;7593;49.006;8.372;2023-07-20T10:55:37;28.60;72.40
14995;DHT22;7593;49.006;8.372;2023-07-20T10:58:09;28.70;72.80
14995;DHT22;7593;49.006;8.372;2023-07-20T11:00:37;29.10;72.30
14995;DHT22;7593;49.006;8.372;2023-07-20T11:03:04;29.30;72.50
14995;DHT22;7593;49.006;8.372;2023-07-20T11:05:36;29.40;72.70
14995;DHT22;7593;49.006;8.372;2023-07-20T11:08:05;29.20;71.90
14995;DHT22;7593;49.006;8.372;2023-07-20T11:10:32;28.70;72.10
14995;DHT22;7593;49.006;8.372;2023-07-20T11:13:19;28.50;72.90
14995;DHT22;7593;49.006;8.372;2023-07-20T11:15:47;28.70;72.40
14995;DHT22;7593;49.006;8.372;2023-07-20T11:18:15;28.70;72.40
14995;DHT22;7593;49.006;8.372;2023-07-20T11:20:42;28.90;71.70
14995;DHT22;7593;49.006;8.372;2023-07-20T11:23:11;29.20;71.50
14995;DHT22;7593;49.006;8.372;2023-07-20T11:25:39;29.10;70.70
14995;DHT22;7593;49.006;8.372;2023-07-20T11:28:09;29.10;71.10
14995;DHT22;7593;49.006;8.372;2023-07-20T11:30:37;29.60;70.20
14995;DHT22;7593;49.006;8.372;2023-07-20T11:33:04;29.80;67.20
14995;DHT22;7593;49.006;8.372;2023-07-20T11:35:35;29.90;66.60
14995;DHT22;7593;49.006;8.372;2023-07-20T11:38:02;30.20;66.00
14995;DHT22;7593;49.006;8.372;2023-07-20T11:40:31;31.10;66.10
14995;DHT22;7593;49.006;8.372;2023-07-20T11:42:57;31.90;65.10
14995;DHT22;7593;49.006;8.372;2023-07-20T11:45:25;32.70;63.70
14995;DHT22;7593;49.006;8.372;2023-07-20T11:47:53;33.10;62.30
14995;DHT22;7593;49.006;8.372;2023-07-20T11:50:19;32.20;61.70
14995;DHT22;7593;49.006;8.372;2023-07-20T11:52:46;31.60;62.10
14995;DHT22;7593;49.006;8.372;2023-07-20T11:55:13;31.60;63.40
14995;DHT22;7593;49.006;8.372;2023-07-20T11:58:01;32.00;62.20
14995;DHT22;7593;49.006;8.372;2023-07-20T12:00:27;31.90;61.80
14995;DHT22;7593;49.006;8.372;2023-07-20T12:02:54;31.40;62.00
14995;DHT22;7593;49.006;8.372;2023-07-20T12:05:22;31.20;62.20
14995;DHT22;7593;49.006;8.372;2023-07-20T12:07:50;31.40;63.10
14995;DHT22;7593;49.006;8.372;2023-07-20T12:10:24;32.10;62.60
14995;DHT22;7593;49.006;8.372;2023-07-20T12:12:52;32.80;61.00
14995;DHT22;7593;49.006;8.372;2023-07-20T12:15:21;33.50;60.40
14995;DHT22;7593;49.006;8.372;2023-07-20T12:17:51;33.30;59.90
14995;DHT22;7593;49.006;8.372;2023-07-20T12:20:25;33.30;58.50
14995;DHT22;7593;49.006;8.372;2023-07-20T12:22:52;32.90;57.70
14995;DHT22;7593;49.006;8.372;2023-07-20T12:25:22;33.00;58.20
14995;DHT22;7593;49.006;8.372;2023-07-20T12:27:49;33.40;57.90
14995;DHT22;7593;49.006;8.372;2023-07-20T12:30:18;33.70;57.40
14995;DHT22;7593;49.006;8.372;2023-07-20T12:32:44;33.20;56.80
14995;DHT22;7593;49.006;8.372;2023-07-20T12:35:11;32.50;57.00
14995;DHT22;7593;49.006;8.372;2023-07-20T12:37:40;32.00;56.90
14995;DHT22;7593;49.006;8.372;2023-07-20T12:40:08;31.60;57.50
14995;DHT22;7593;49.006;8.372;2023-07-20T12:42:36;32.00;58.10
14995;DHT22;7593;49.006;8.372;2023-07-20T12:45:05;32.70;57.70
14995;DHT22;7593;49.006;8.372;2023-07-20T12:47:33;33.90;56.60
14995;DHT22;7593;49.006;8.372;2023-07-20T12:50:00;34.70;54.80
14995;DHT22;7593;49.006;8.372;2023-07-20T12:52:27;34.80;53.90
14995;DHT22;7593;49.006;8.372;2023-07-20T12:54:53;34.90;54.50
14995;DHT22;7593;49.006;8.372;2023-07-20T12:57:20;35.20;53.90
14995;DHT22;7593;49.006;8.372;2023-07-20T12:59:47;35.70;53.90
14995;DHT22;7593;49.006;8.372;2023-07-20T13:02:14;35.10;53.00
14995;DHT22;7593;49.006;8.372;2023-07-20T13:04:42;34.80;52.70
14995;DHT22;7593;49.006;8.372;2023-07-20T13:07:10;34.50;53.30
14995;DHT22;7593;49.006;8.372;2023-07-20T13:09:37;34.20;53.70
14995;DHT22;7593;49.006;8.372;2023-07-20T13:12:05;34.60;53.30
14995;DHT22;7593;49.006;8.372;2023-07-20T13:14:31;35.10;52.20
14995;DHT22;7593;49.006;8.372;2023-07-20T13:16:58;35.50;51.30
14995;DHT22;7593;49.006;8.372;2023-07-20T13:19:25;35.40;51.00
14995;DHT22;7593;49.006;8.372;2023-07-20T13:21:54;34.50;51.70
14995;DHT22;7593;49.006;8.372;2023-07-20T13:24:20;34.00;52.00
14995;DHT22;7593;49.006;8.372;2023-07-20T13:26:47;33.70;52.80
14995;DHT22;7593;49.006;8.372;2023-07-20T13:29:14;34.00;52.60
14995;DHT22;7593;49.006;8.372;2023-07-20T13:31:41;34.50;51.80
14995;DHT22;7593;49.006;8.372;2023-07-20T13:34:07;34.50;51.60
14995;DHT22;7593;49.006;8.372;2023-07-20T13:36:34;34.20;51.40
14995;DHT22;7593;49.006;8.372;2023-07-20T13:39:02;33.20;51.50
14995;DHT22;7593;49.006;8.372;2023-07-20T13:41:31;32.70;51.60
14995;DHT22;7593;49.006;8.372;2023-07-20T13:43:58;33.00;51.40
14995;DHT22;7593;49.006;8.372;2023-07-20T13:46:25;32.80;51.20
14995;DHT22;7593;49.006;8.372;2023-07-20T13:48:52;33.40;51.10
14995;DHT22;7593;49.006;8.372;2023-07-20T13:51:18;34.20;50.50
14995;DHT22;7593;49.006;8.372;2023-07-20T13:53:45;34.60;50.10
14995;DHT22;7593;49.006;8.372;2023-07-20T13:56:13;33.80;50.10
14995;DHT22;7593;49.006;8.372;2023-07-20T13:58:40;33.20;50.40
14995;DHT22;7593;49.006;8.372;2023-07-20T14:01:08;33.10;51.00
14995;DHT22;7593;49.006;8.372;2023-07-20T14:03:34;33.00;51.30
14995;DHT22;7593;49.006;8.372;2023-07-20T14:06:01;32.60;51.30
14995;DHT22;7593;49.006;8.372;2023-07-20T14:08:28;32.70;51.60
14995;DHT22;7593;49.006;8.372;2023-07-20T14:10:55;32.90;51.50
14995;DHT22;7593;49.006;8.372;2023-07-20T14:13:23;32.50;51.80
14995;DHT22;7593;49.006;8.372;2023-07-20T14:15:50;33.20;51.90
14995;DHT22;7593;49.006;8.372;2023-07-20T14:18:17;33.60;51.70
14995;DHT22;7593;49.006;8.372;2023-07-20T14:20:44;34.00;51.00
14995;DHT22;7593;49.006;8.372;2023-07-20T14:23:11;33.90;50.20
14995;DHT22;7593;49.006;8.372;2023-07-20T14:25:37;34.10;50.20
14995;DHT22;7593;49.006;8.372;2023-07-20T14:28:04;33.70;49.70
14995;DHT22;7593;49.006;8.372;2023-07-20T14:30:32;33.50;49.80
14995;DHT22;7593;49.006;8.372;2023-07-20T14:32:59;32.80;50.00
14995;DHT22;7593;49.006;8.372;2023-07-20T14:35:26;32.40;50.70
14995;DHT22;7593;49.006;8.372;2023-07-20T14:37:53;32.10;50.40
14995;DHT22;7593;49.006;8.372;2023-07-20T14:40:19;32.70;50.60
14995;DHT22;7593;49.006;8.372;2023-07-20T14:42:46;33.20;50.80
14995;DHT22;7593;49.006;8.372;2023-07-20T14:45:13;33.50;50.10
14995;DHT22;7593;49.006;8.372;2023-07-20T14:47:42;33.10;50.20
14995;DHT22;7593;49.006;8.372;2023-07-20T14:50:09;32.70;50.10
14995;DHT22;7593;49.006;8.372;2023-07-20T14:52:36;32.00;50.90
14995;DHT22;7593;49.006;8.372;2023-07-20T14:55:04;31.70;51.40
14995;DHT22;7593;49.006;8.372;2023-07-20T14:57:31;32.00;52.20
14995;DHT22;7593;49.006;8.372;2023-07-20T14:59:57;31.70;51.60
14995;DHT22;7593;49.006;8.372;2023-07-20T15:02:24;31.50;50.70
14995;DHT22;7593;49.006;8.372;2023-07-20T15:04:52;31.10;50.60
14995;DHT22;7593;49.006;8.372;2023-07-20T15:07:21;30.80;51.30
14995;DHT22;7593;49.006;8.372;2023-07-20T15:09:48;30.70;51.70
14995;DHT22;7593;49.006;8.372;2023-07-20T15:12:14;30.40;51.90
14995;DHT22;7593;49.006;8.372;2023-07-20T15:14:42;30.70;52.20
14995;DHT22;7593;49.006;8.372;2023-07-20T15:17:09;31.20;51.10
14995;DHT22;7593;49.006;8.372;2023-07-20T15:19:37;31.30;51.20
14995;DHT22;7593;49.006;8.372;2023-07-20T15:22:05;31.80;51.20
14995;DHT22;7593;49.006;8.372;2023-07-20T15:24:33;32.40;50.00
14995;DHT22;7593;49.006;8.372;2023-07-20T15:27:01;32.60;50.00
14995;DHT22;7593;49.006;8.372;2023-07-20T15:29:28;32.70;49.00
14995;DHT22;7593;49.006;8.372;2023-07-20T15:31:55;32.70;49.00
14995;DHT22;7593;49.006;8.372;2023-07-20T15:34:21;32.50;49.20
14995;DHT22;7593;49.006;8.372;2023-07-20T15:36:48;31.90;50.00
14995;DHT22;7593;49.006;8.372;2023-07-20T15:39:16;31.60;50.30
14995;DHT22;7593;49.006;8.372;2023-07-20T15:41:43;31.40;50.70
14995;DHT22;7593;49.006;8.372;2023-07-20T15:44:12;31.30;50.90
14995;DHT22;7593;49.006;8.372;2023-07-20T15:46:47;31.60;50.50
14995;DHT22;7593;49.006;8.372;2023-07-20T15:49:14;31.60;50.50